createdAt,value
2022-07-27T00:01:19.121Z,1.13
2022-07-27T00:03:47.823Z,1.13
2022-07-27T00:06:16.522Z,1.40
2022-07-27T00:08:45.491Z,1.25
2022-07-27T00:11:14.332Z,1.27
2022-07-27T00:13:42.836Z,1.13
2022-07-27T00:16:11.406Z,1.10
2022-07-27T00:18:41.709Z,1.40
2022-07-27T00:21:10.447Z,1.33
2022-07-27T00:23:38.947Z,1.20
2022-07-27T00:26:07.450Z,1.38
2022-07-27T00:28:35.984Z,1.30
2022-07-27T00:31:04.655Z,1.27
2022-07-27T00:33:33.152Z,1.33
2022-07-27T00:36:03.289Z,1.23
2022-07-27T00:38:31.794Z,1.25
2022-07-27T00:41:00.290Z,1.02
2022-07-27T00:43:28.821Z,1.25
2022-07-27T00:45:57.320Z,1.00
2022-07-27T00:48:26.520Z,1.30
2022-07-27T00:50:57.137Z,1.33
2022-07-27T00:53:27.092Z,1.50
2022-07-27T00:55:55.614Z,1.45
2022-07-27T00:58:24.216Z,1.38
2022-07-27T01:00:52.660Z,1.50
2022-07-27T01:03:23.262Z,1.10
2022-07-27T01:05:58.735Z,1.45
2022-07-27T01:08:30.017Z,1.10
2022-07-27T01:10:59.054Z,1.67
2022-07-27T01:13:27.933Z,1.27
2022-07-27T01:15:57.256Z,1.10
2022-07-27T01:18:29.814Z,1.42
2022-07-27T01:20:58.692Z,1.17
2022-07-27T01:23:29.148Z,1.25
2022-07-27T01:25:57.636Z,1.40
2022-07-27T01:28:26.216Z,1.67
2022-07-27T01:30:54.707Z,1.58
2022-07-27T01:33:26.147Z,1.17
2022-07-27T01:35:56.060Z,1.20
2022-07-27T01:38:24.748Z,1.02
2022-07-27T01:40:55.731Z,1.30
2022-07-27T01:43:24.526Z,1.20
2022-07-27T01:45:53.030Z,1.52
2022-07-27T01:48:22.559Z,1.55
2022-07-27T01:50:52.073Z,1.10
2022-07-27T01:53:20.930Z,1.35
2022-07-27T01:55:49.913Z,1.60
2022-07-27T01:58:20.061Z,1.42
2022-07-27T02:00:49.929Z,1.50
2022-07-27T02:03:18.675Z,1.42
2022-07-27T02:05:47.211Z,1.30
2022-07-27T02:08:15.689Z,1.48
2022-07-27T02:10:58.013Z,1.60
2022-07-27T02:13:28.412Z,1.02
2022-07-27T02:15:57.221Z,1.25
2022-07-27T02:18:33.552Z,1.50
2022-07-27T02:21:06.010Z,1.48
2022-07-27T02:23:34.865Z,1.50
2022-07-27T02:26:03.385Z,1.35
2022-07-27T02:28:33.238Z,1.23
2022-07-27T02:31:02.015Z,1.50
2022-07-27T02:33:30.759Z,1.20
2022-07-27T02:35:59.301Z,1.20
2022-07-27T02:38:27.782Z,1.33
2022-07-27T02:40:56.263Z,1.40
2022-07-27T02:43:24.735Z,1.15
2022-07-27T02:45:54.635Z,1.48
2022-07-27T02:48:23.245Z,1.30
2022-07-27T02:50:51.730Z,1.42
2022-07-27T02:53:20.239Z,1.40
2022-07-27T02:55:48.781Z,1.80
2022-07-27T02:58:17.308Z,1.10
2022-07-27T03:00:45.791Z,1.65
2022-07-27T03:03:15.696Z,1.83
2022-07-27T03:05:44.218Z,1.33
2022-07-27T03:08:12.745Z,1.50
2022-07-27T03:10:41.204Z,1.70
2022-07-27T03:13:17.326Z,1.58
2022-07-27T03:15:45.845Z,1.52
2022-07-27T03:18:16.906Z,1.70
2022-07-27T03:20:45.749Z,1.60
2022-07-27T03:23:14.209Z,1.45
2022-07-27T03:25:42.698Z,1.33
2022-07-27T03:28:11.188Z,1.70
2022-07-27T03:30:39.681Z,1.63
2022-07-27T03:33:08.316Z,1.40
2022-07-27T03:35:38.220Z,1.42
2022-07-27T03:38:06.755Z,1.60
2022-07-27T03:40:35.314Z,2.85
2022-07-27T03:43:03.789Z,1.58
2022-07-27T03:45:32.329Z,1.45
2022-07-27T03:48:00.881Z,1.75
2022-07-27T03:50:29.361Z,1.73
2022-07-27T03:52:59.209Z,1.73
2022-07-27T03:55:27.748Z,2.78
2022-07-27T03:57:56.277Z,2.20
2022-07-27T04:00:24.796Z,1.70
2022-07-27T04:02:53.351Z,2.03
2022-07-27T04:05:22.033Z,1.67
2022-07-27T04:07:54.955Z,1.67
2022-07-27T04:10:29.230Z,1.67
2022-07-27T04:13:00.446Z,1.80
2022-07-27T04:15:29.794Z,1.60
2022-07-27T04:17:58.423Z,1.92
2022-07-27T04:20:27.146Z,1.60
2022-07-27T04:22:55.704Z,1.90
2022-07-27T04:25:25.672Z,1.90
2022-07-27T04:27:55.269Z,1.65
2022-07-27T04:30:24.075Z,2.03
2022-07-27T04:32:52.653Z,1.70
2022-07-27T04:35:26.113Z,1.30
2022-07-27T04:37:58.179Z,2.00
2022-07-27T04:40:31.980Z,1.85
2022-07-27T04:43:00.681Z,1.73
2022-07-27T04:45:29.199Z,2.13
2022-07-27T04:47:57.690Z,1.60
2022-07-27T04:50:26.143Z,1.52
2022-07-27T04:52:54.621Z,1.90
2022-07-27T04:55:23.159Z,1.50
2022-07-27T04:57:53.061Z,1.67
2022-07-27T05:00:21.564Z,1.73
2022-07-27T05:02:50.501Z,2.65
2022-07-27T05:05:18.981Z,1.90
2022-07-27T05:07:47.661Z,1.95
2022-07-27T05:10:20.057Z,1.85
2022-07-27T05:12:49.445Z,1.73
2022-07-27T05:15:19.578Z,1.55
2022-07-27T05:17:48.219Z,1.90
2022-07-27T05:20:16.898Z,1.88
2022-07-27T05:22:45.378Z,1.88
2022-07-27T05:25:13.982Z,2.15
2022-07-27T05:27:51.090Z,2.05
2022-07-27T05:30:25.616Z,1.83
2022-07-27T05:32:54.210Z,2.17
2022-07-27T05:35:22.897Z,1.90
2022-07-27T05:37:51.381Z,1.75
2022-07-27T05:40:19.884Z,1.80
2022-07-27T05:42:48.907Z,1.95
2022-07-27T05:45:17.499Z,1.35
2022-07-27T05:47:47.354Z,1.58
2022-07-27T05:50:16.244Z,1.70
2022-07-27T05:52:45.453Z,1.70
2022-07-27T05:55:14.989Z,2.05
2022-07-27T05:57:43.609Z,1.60
2022-07-27T06:00:12.960Z,2.38
2022-07-27T06:02:41.529Z,1.90
2022-07-27T06:05:15.976Z,1.52
2022-07-27T06:08:00.995Z,1.85
2022-07-27T06:10:29.988Z,1.30
2022-07-27T06:12:58.770Z,1.40
2022-07-27T06:15:27.398Z,1.80
2022-07-27T06:17:55.954Z,1.25
2022-07-27T06:20:27.819Z,2.10
2022-07-27T06:23:07.566Z,1.33
2022-07-27T06:25:37.047Z,1.98
2022-07-27T06:28:05.713Z,1.55
2022-07-27T06:30:34.413Z,1.70
2022-07-27T06:33:04.310Z,1.40
2022-07-27T06:35:37.062Z,1.58
2022-07-27T06:38:07.633Z,1.83
2022-07-27T06:40:36.176Z,1.50
2022-07-27T06:43:04.718Z,2.28
2022-07-27T06:45:33.640Z,1.65
2022-07-27T06:48:02.119Z,1.40
2022-07-27T06:50:30.601Z,1.60
2022-07-27T06:53:00.459Z,2.22
2022-07-27T06:55:28.920Z,1.95
2022-07-27T06:57:57.406Z,1.50
2022-07-27T07:00:26.474Z,1.70
2022-07-27T07:02:55.957Z,2.00
2022-07-27T07:05:24.657Z,1.92
2022-07-27T07:07:53.389Z,2.00
2022-07-27T07:10:24.213Z,1.77
2022-07-27T07:12:55.814Z,1.92
2022-07-27T07:15:24.992Z,1.50
2022-07-27T07:17:53.572Z,1.95
2022-07-27T07:20:22.142Z,1.75
2022-07-27T07:22:50.641Z,1.67
2022-07-27T07:25:19.186Z,2.00
2022-07-27T07:27:49.072Z,2.05
2022-07-27T07:30:17.749Z,1.83
2022-07-27T07:32:46.422Z,1.70
2022-07-27T07:35:15.062Z,1.70
2022-07-27T07:37:43.563Z,1.13
2022-07-27T07:40:40.542Z,0.90
2022-07-27T07:43:03.307Z,1.00
2022-07-27T07:45:32.493Z,1.17
2022-07-27T07:48:01.061Z,1.10
2022-07-27T07:50:29.821Z,1.20
2022-07-27T07:52:58.298Z,1.30
2022-07-27T07:55:27.537Z,1.10
2022-07-27T07:57:57.717Z,0.70
2022-07-27T08:00:28.160Z,0.73
2022-07-27T08:02:58.304Z,0.80
2022-07-27T08:05:27.570Z,0.65
2022-07-27T08:07:56.094Z,0.70
2022-07-27T08:10:24.605Z,0.77
2022-07-27T08:12:54.101Z,0.85
2022-07-27T08:15:29.995Z,0.98
2022-07-27T08:18:05.921Z,0.73
2022-07-27T08:20:34.493Z,0.60
2022-07-27T08:23:03.513Z,0.65
2022-07-27T08:25:32.168Z,0.63
2022-07-27T08:28:02.693Z,0.68
2022-07-27T08:30:33.012Z,0.50
2022-07-27T08:33:02.937Z,0.40
2022-07-27T08:35:33.546Z,0.50
2022-07-27T08:38:02.519Z,0.57
2022-07-27T08:40:41.275Z,0.50
2022-07-27T08:43:11.380Z,0.88
2022-07-27T08:45:41.821Z,0.70
2022-07-27T08:48:14.075Z,0.50
2022-07-27T08:50:44.389Z,0.73
2022-07-27T08:53:13.869Z,0.80
2022-07-27T08:55:43.633Z,0.70
2022-07-27T08:58:12.685Z,0.73
2022-07-27T09:00:41.941Z,0.70
2022-07-27T09:03:18.453Z,0.60
2022-07-27T09:05:50.875Z,0.77
2022-07-27T09:08:21.563Z,0.68
2022-07-27T09:10:50.552Z,0.82
2022-07-27T09:13:20.370Z,0.70
2022-07-27T09:16:16.425Z,0.50
2022-07-27T09:18:38.210Z,0.50
2022-07-27T09:21:11.561Z,0.50
2022-07-27T09:23:41.792Z,0.45
2022-07-27T09:26:31.091Z,0.40
2022-07-27T09:29:02.095Z,0.40
2022-07-27T09:31:31.455Z,0.40
2022-07-27T09:34:01.305Z,0.30
2022-07-27T09:36:30.731Z,0.40
2022-07-27T09:39:03.734Z,0.50
2022-07-27T09:41:42.140Z,0.30
2022-07-27T09:46:59.985Z,0.40
2022-07-27T09:49:29.378Z,0.40
2022-07-27T09:52:00.634Z,0.50
2022-07-27T09:54:43.178Z,0.40
2022-07-27T09:57:11.947Z,0.38
2022-07-27T09:59:40.429Z,0.40
2022-07-27T10:02:09.294Z,0.50
2022-07-27T10:04:37.932Z,0.40
2022-07-27T10:07:12.411Z,0.40
2022-07-27T10:09:44.224Z,0.40
2022-07-27T10:12:12.882Z,0.40
2022-07-27T10:14:41.373Z,0.40
2022-07-27T10:17:12.966Z,0.40
2022-07-27T10:19:45.518Z,0.40
2022-07-27T10:22:14.727Z,0.47
2022-07-27T10:24:47.676Z,0.60
2022-07-27T10:27:20.742Z,0.43
2022-07-27T10:29:49.640Z,0.40
2022-07-27T10:32:25.528Z,0.40
2022-07-27T10:34:54.146Z,0.40
2022-07-27T10:37:26.917Z,0.40
2022-07-27T10:40:11.549Z,0.40
2022-07-27T10:42:40.423Z,0.35
2022-07-27T10:45:10.031Z,0.50
2022-07-27T10:47:40.259Z,0.32
2022-07-27T10:50:22.497Z,0.40
2022-07-27T10:52:52.026Z,0.40
2022-07-27T10:55:38.932Z,0.40
2022-07-27T10:58:41.227Z,0.40
2022-07-27T11:01:09.755Z,0.40
2022-07-27T11:03:47.468Z,0.40
2022-07-27T11:07:00.311Z,0.40
2022-07-27T11:12:00.086Z,0.38
2022-07-27T11:14:32.034Z,0.40
2022-07-27T11:17:24.445Z,0.50
2022-07-27T11:19:54.298Z,0.40
2022-07-27T11:23:13.937Z,0.40
2022-07-27T11:25:21.073Z,0.60
2022-07-27T11:27:50.374Z,0.40
2022-07-27T11:30:30.044Z,0.40
2022-07-27T11:32:58.700Z,0.40
2022-07-27T11:35:27.183Z,0.40
2022-07-27T11:38:02.455Z,0.40
2022-07-27T11:40:57.341Z,0.40
2022-07-27T11:43:38.487Z,0.40
2022-07-27T11:46:15.631Z,0.40
2022-07-27T11:49:07.963Z,0.30
2022-07-27T11:51:37.535Z,0.38
2022-07-27T11:54:07.021Z,0.50
2022-07-27T11:56:37.096Z,0.40
2022-07-27T11:59:07.671Z,0.40
2022-07-27T12:01:38.365Z,0.40
2022-07-27T12:04:18.780Z,0.50
2022-07-27T12:06:48.622Z,0.60
2022-07-27T12:09:18.468Z,0.40
2022-07-27T12:11:50.212Z,0.40
2022-07-27T12:14:19.401Z,0.40
2022-07-27T12:16:49.335Z,0.40
2022-07-27T12:19:23.993Z,0.40
2022-07-27T12:21:56.237Z,0.40
2022-07-27T12:24:33.866Z,0.43
2022-07-27T12:27:07.045Z,0.47
2022-07-27T12:29:35.728Z,0.50
2022-07-27T12:32:06.094Z,0.40
2022-07-27T12:34:35.246Z,0.40
2022-07-27T12:37:03.782Z,0.40
2022-07-27T12:39:33.076Z,0.60
2022-07-27T12:42:05.366Z,0.50
2022-07-27T12:44:34.690Z,0.40
2022-07-27T12:47:27.370Z,0.40
2022-07-27T12:50:05.736Z,0.40
2022-07-27T12:52:34.769Z,0.45
2022-07-27T12:55:03.783Z,0.40
2022-07-27T12:57:54.000Z,0.50
2022-07-27T13:00:20.960Z,0.40
2022-07-27T13:02:49.465Z,0.40
2022-07-27T13:05:19.570Z,0.40
2022-07-27T13:07:48.122Z,0.40
2022-07-27T13:10:18.359Z,0.50
2022-07-27T13:12:47.289Z,0.50
2022-07-27T13:15:16.328Z,0.50
2022-07-27T13:17:45.239Z,0.50
2022-07-27T13:20:14.354Z,0.40
2022-07-27T13:22:45.023Z,0.50
2022-07-27T13:25:15.998Z,0.40
2022-07-27T13:27:45.984Z,0.40
2022-07-27T13:30:16.012Z,0.32
2022-07-27T13:32:44.817Z,0.43
2022-07-27T13:35:14.030Z,0.60
2022-07-27T13:37:43.885Z,0.40
2022-07-27T13:40:12.649Z,0.40
2022-07-27T13:42:41.165Z,0.40
2022-07-27T13:45:11.970Z,0.50
2022-07-27T13:47:41.213Z,0.45
2022-07-27T13:50:17.198Z,0.57
2022-07-27T13:52:49.017Z,0.30
2022-07-27T13:55:18.130Z,0.40
2022-07-27T13:57:47.256Z,0.40
2022-07-27T14:00:16.363Z,0.55
2022-07-27T14:02:45.523Z,0.40
2022-07-27T14:05:15.797Z,0.60
2022-07-27T14:07:45.024Z,0.50
2022-07-27T14:10:32.979Z,0.45
2022-07-27T14:13:07.247Z,0.50
2022-07-27T14:15:50.358Z,0.50
2022-07-27T14:18:22.357Z,0.43
2022-07-27T14:20:50.887Z,0.50
2022-07-27T14:23:19.364Z,0.50
2022-07-27T14:25:49.234Z,0.50
2022-07-27T14:28:17.753Z,0.50
2022-07-27T14:30:46.509Z,0.40
2022-07-27T14:33:15.053Z,0.40
2022-07-27T14:35:43.625Z,0.47
2022-07-27T14:38:12.528Z,0.43
2022-07-27T14:40:41.649Z,0.50
2022-07-27T14:43:11.894Z,0.50
2022-07-27T14:45:45.200Z,0.65
2022-07-27T14:48:20.377Z,0.50
2022-07-27T14:50:54.083Z,0.60
2022-07-27T14:53:22.589Z,0.50
2022-07-27T14:55:51.092Z,0.50
2022-07-27T14:58:20.932Z,0.40
2022-07-27T15:00:49.537Z,0.40
2022-07-27T15:03:19.829Z,1.38
2022-07-27T15:05:49.331Z,0.63
2022-07-27T15:08:19.220Z,0.55
2022-07-27T15:10:48.571Z,0.60
2022-07-27T15:13:17.800Z,0.50
2022-07-27T15:15:48.695Z,0.70
2022-07-27T15:18:19.431Z,0.60
2022-07-27T15:20:48.023Z,0.50
2022-07-27T15:23:16.501Z,0.50
2022-07-27T15:25:44.985Z,0.70
2022-07-27T15:28:13.677Z,0.93
2022-07-27T15:30:42.437Z,0.70
2022-07-27T15:33:12.318Z,0.70
2022-07-27T15:35:40.814Z,0.70
2022-07-27T15:38:09.367Z,0.63
2022-07-27T15:40:37.863Z,0.50
2022-07-27T15:43:06.409Z,0.60
2022-07-27T15:45:38.528Z,0.55
2022-07-27T15:48:08.430Z,0.47
2022-07-27T15:50:39.163Z,0.68
2022-07-27T15:53:08.232Z,0.50
2022-07-27T15:55:37.683Z,0.60
2022-07-27T15:58:06.389Z,0.50
2022-07-27T16:00:39.529Z,0.50
2022-07-27T16:03:09.757Z,0.80
2022-07-27T16:05:39.884Z,0.70
2022-07-27T16:08:09.836Z,0.50
2022-07-27T16:10:38.644Z,0.40
2022-07-27T16:13:07.122Z,0.57
2022-07-27T16:15:53.608Z,0.50
2022-07-27T16:18:22.257Z,0.60
2022-07-27T16:20:52.185Z,0.50
2022-07-27T16:23:21.708Z,0.65
2022-07-27T16:26:04.091Z,0.63
2022-07-27T16:28:34.215Z,0.50
2022-07-27T16:31:03.208Z,0.52
2022-07-27T16:33:31.706Z,0.98
2022-07-27T16:36:01.562Z,0.68
2022-07-27T16:38:30.389Z,0.82
2022-07-27T16:40:58.893Z,0.60
2022-07-27T16:43:36.343Z,0.60
2022-07-27T16:46:07.505Z,0.80
2022-07-27T16:48:42.636Z,0.70
2022-07-27T16:51:13.325Z,0.85
2022-07-27T16:53:42.662Z,0.60
2022-07-27T16:56:11.493Z,0.80
2022-07-27T16:58:40.472Z,0.50
2022-07-27T17:01:09.211Z,0.60
2022-07-27T17:03:37.767Z,0.60
2022-07-27T17:06:07.292Z,0.50
2022-07-27T17:08:37.653Z,0.60
2022-07-27T17:11:06.959Z,0.60
2022-07-27T17:13:38.755Z,0.70
2022-07-27T17:16:14.954Z,0.70
2022-07-27T17:18:43.480Z,0.55
2022-07-27T17:21:12.813Z,0.60
2022-07-27T17:23:44.010Z,0.82
2022-07-27T17:26:13.361Z,0.57
2022-07-27T17:28:42.389Z,0.50
2022-07-27T17:31:11.664Z,0.70
2022-07-27T17:33:40.225Z,0.60
2022-07-27T17:36:14.656Z,0.55
2022-07-27T17:38:45.776Z,0.57
2022-07-27T17:41:14.914Z,0.60
2022-07-27T17:43:43.897Z,0.60
2022-07-27T17:46:13.167Z,0.70
2022-07-27T17:48:42.062Z,0.60
2022-07-27T17:51:11.590Z,0.70
2022-07-27T17:53:40.387Z,0.80
2022-07-27T17:56:11.144Z,1.00
2022-07-27T17:58:39.629Z,0.80
2022-07-27T18:01:08.844Z,0.80
2022-07-27T18:03:37.532Z,0.90
2022-07-27T18:06:06.986Z,0.60
2022-07-27T18:08:36.237Z,0.70
2022-07-27T18:11:05.419Z,0.70
2022-07-27T18:13:39.322Z,0.80
2022-07-27T18:16:09.299Z,0.70
2022-07-27T18:18:38.222Z,1.13
2022-07-27T18:21:06.920Z,0.80
2022-07-27T18:23:35.585Z,0.60
2022-07-27T18:26:04.057Z,0.70
2022-07-27T18:28:38.969Z,0.73
2022-07-27T18:31:12.529Z,0.85
2022-07-27T18:33:45.986Z,1.02
2022-07-27T18:36:15.114Z,0.80
2022-07-27T18:38:45.148Z,0.70
2022-07-27T18:41:13.746Z,0.80
2022-07-27T18:43:42.226Z,0.70
2022-07-27T18:46:12.518Z,0.85
2022-07-27T18:48:41.091Z,0.70
2022-07-27T18:51:09.788Z,0.80
2022-07-27T18:53:38.597Z,0.80
2022-07-27T18:56:07.478Z,0.85
2022-07-27T18:58:35.990Z,0.88
2022-07-27T19:01:04.657Z,0.80
2022-07-27T19:03:34.660Z,0.80
2022-07-27T19:06:03.165Z,0.90
2022-07-27T19:08:31.851Z,0.70
2022-07-27T19:11:00.407Z,0.80
2022-07-27T19:13:28.886Z,0.80
2022-07-27T19:15:57.446Z,0.52
2022-07-27T19:18:26.466Z,0.70
2022-07-27T19:20:56.377Z,0.70
2022-07-27T19:23:25.220Z,0.57
2022-07-27T19:25:59.237Z,0.70
2022-07-27T19:28:28.581Z,1.08
2022-07-27T19:30:57.165Z,1.00
2022-07-27T19:33:25.716Z,0.77
2022-07-27T19:35:55.638Z,0.93
2022-07-27T19:38:25.768Z,1.00
2022-07-27T19:40:55.232Z,1.10
2022-07-27T19:43:23.756Z,1.73
2022-07-27T19:45:52.546Z,7.50
2022-07-27T19:48:22.386Z,6.68
2022-07-27T19:50:51.002Z,5.00
2022-07-27T19:53:19.701Z,4.38
2022-07-27T19:55:49.607Z,3.10
2022-07-27T19:58:18.086Z,2.67
2022-07-27T20:00:50.289Z,1.92
2022-07-27T20:03:19.049Z,2.10
2022-07-27T20:05:48.193Z,2.13
2022-07-27T20:08:17.018Z,1.77
2022-07-27T20:10:47.202Z,1.80
2022-07-27T20:13:17.445Z,1.67
2022-07-27T20:15:46.066Z,1.38
2022-07-27T20:18:14.561Z,1.73
2022-07-27T20:20:43.040Z,1.10
2022-07-27T20:23:11.569Z,1.67
2022-07-27T20:25:42.117Z,1.05
2022-07-27T20:28:10.621Z,0.90
2022-07-27T20:30:40.607Z,1.10
2022-07-27T20:33:10.006Z,0.85
2022-07-27T20:35:38.674Z,0.90
2022-07-27T20:38:07.179Z,0.70
2022-07-27T20:40:35.654Z,1.00
2022-07-27T20:43:04.170Z,0.80
2022-07-27T20:45:32.802Z,0.70
2022-07-27T20:48:02.712Z,0.80
2022-07-27T20:50:31.188Z,0.85
2022-07-27T20:53:04.095Z,0.77
2022-07-27T20:55:33.186Z,1.10
2022-07-27T20:58:02.024Z,0.80
2022-07-27T21:00:30.589Z,0.90
2022-07-27T21:02:59.068Z,1.17
2022-07-27T21:05:29.206Z,0.80
2022-07-27T21:07:57.694Z,0.90
2022-07-27T21:10:26.633Z,1.00
2022-07-27T21:12:55.093Z,1.00
2022-07-27T21:15:23.590Z,1.15
2022-07-27T21:18:02.361Z,0.90
2022-07-27T21:20:32.267Z,1.13
2022-07-27T21:23:18.353Z,1.20
2022-07-27T21:25:46.860Z,1.10
2022-07-27T21:28:18.011Z,1.40
2022-07-27T21:30:51.670Z,1.20
2022-07-27T21:33:20.235Z,0.95
2022-07-27T21:35:50.147Z,1.10
2022-07-27T21:38:18.616Z,1.10
2022-07-27T21:40:47.122Z,1.10
2022-07-27T21:43:15.561Z,1.30
2022-07-27T21:45:49.503Z,1.40
2022-07-27T21:48:18.261Z,1.30
2022-07-27T21:50:46.694Z,1.40
2022-07-27T21:53:16.798Z,1.25
2022-07-27T21:55:45.271Z,1.38
2022-07-27T21:58:15.402Z,1.30
2022-07-27T22:00:43.948Z,1.23
2022-07-27T22:03:12.493Z,1.40
2022-07-27T22:05:41.035Z,1.40
2022-07-27T22:08:09.501Z,1.40
2022-07-27T22:10:39.490Z,1.48
2022-07-27T22:13:08.077Z,1.55
2022-07-27T22:15:36.548Z,1.73
2022-07-27T22:18:05.037Z,1.70
2022-07-27T22:20:33.518Z,1.58
2022-07-27T22:23:01.990Z,1.60
2022-07-27T22:25:30.548Z,1.58
2022-07-27T22:28:00.489Z,1.52
2022-07-27T22:30:29.516Z,1.08
2022-07-27T22:32:58.146Z,1.60
2022-07-27T22:35:26.734Z,1.40
2022-07-27T22:37:55.419Z,1.40
2022-07-27T22:40:24.536Z,1.60
2022-07-27T22:42:53.034Z,1.20
2022-07-27T22:45:23.350Z,1.20
2022-07-27T22:47:51.854Z,1.20
2022-07-27T22:50:21.814Z,1.30
2022-07-27T22:52:51.314Z,1.30
2022-07-27T22:55:20.333Z,1.10
2022-07-27T22:57:49.956Z,1.20
2022-07-27T23:00:19.073Z,1.33
2022-07-27T23:02:49.544Z,1.50
2022-07-27T23:05:18.068Z,1.45
2022-07-27T23:07:46.580Z,1.45
2022-07-27T23:10:30.783Z,1.17
2022-07-27T23:12:59.658Z,1.33
2022-07-27T23:15:28.249Z,1.10
2022-07-27T23:17:58.133Z,1.30
2022-07-27T23:20:26.607Z,1.20
2022-07-27T23:22:55.310Z,0.95
2022-07-27T23:25:24.857Z,1.50
2022-07-27T23:28:04.953Z,1.08
2022-07-27T23:30:33.444Z,1.23
2022-07-27T23:33:03.288Z,1.20
2022-07-27T23:35:31.999Z,1.30
2022-07-27T23:38:01.885Z,1.02
2022-07-27T23:40:30.421Z,1.00
2022-07-27T23:42:58.899Z,1.17
2022-07-27T23:45:27.603Z,1.02
2022-07-27T23:47:56.144Z,1.20
2022-07-27T23:50:26.496Z,1.30
2022-07-27T23:52:55.004Z,1.05
2022-07-27T23:55:23.536Z,1.20
2022-07-27T23:57:55.241Z,1.95
